createdAt,value
2022-11-03T00:02:54.087Z,54.28
2022-11-03T00:05:47.737Z,54.29
2022-11-03T00:09:11.332Z,54.15
2022-11-03T00:12:37.273Z,54.95
2022-11-03T00:15:20.699Z,54.94
2022-11-03T00:17:56.451Z,54.53
2022-11-03T00:20:56.184Z,54.51
2022-11-03T00:23:35.600Z,54.54
2022-11-03T00:26:38.409Z,54.58
2022-11-03T00:29:42.500Z,54.57
2022-11-03T00:32:40.840Z,54.64
2022-11-03T00:38:44.673Z,54.87
2022-11-03T00:41:23.325Z,54.89
2022-11-03T00:44:46.071Z,54.94
2022-11-03T00:47:24.294Z,55.02
2022-11-03T00:50:00.446Z,55.11
2022-11-03T00:52:39.284Z,55.06
2022-11-03T00:55:11.940Z,55.12
2022-11-03T00:58:10.873Z,55.24
2022-11-03T01:01:11.931Z,55.40
2022-11-03T01:04:39.012Z,55.44
2022-11-03T01:07:15.155Z,55.47
2022-11-03T01:09:52.006Z,55.65
2022-11-03T01:13:13.224Z,55.55
2022-11-03T01:15:51.752Z,55.60
2022-11-03T01:22:19.328Z,55.45
2022-11-03T01:25:21.691Z,55.52
2022-11-03T01:27:54.642Z,55.62
2022-11-03T01:34:38.059Z,55.57
2022-11-03T01:37:14.064Z,55.60
2022-11-03T01:39:47.261Z,56.13
2022-11-03T01:42:26.866Z,56.34
2022-11-03T01:45:09.643Z,56.40
2022-11-03T01:51:09.272Z,56.70
2022-11-03T01:53:47.905Z,56.82
2022-11-03T01:56:48.299Z,56.89
2022-11-03T01:59:28.468Z,56.79
2022-11-03T02:02:47.983Z,56.96
2022-11-03T02:06:11.538Z,57.01
2022-11-03T02:12:16.939Z,56.53
2022-11-03T02:14:56.028Z,56.38
2022-11-03T02:17:36.653Z,56.13
2022-11-03T02:20:32.228Z,56.08
2022-11-03T02:23:54.846Z,56.23
2022-11-03T02:26:57.225Z,56.30
2022-11-03T02:29:29.319Z,56.26
2022-11-03T02:35:40.955Z,56.33
2022-11-03T02:38:23.428Z,56.30
2022-11-03T02:41:05.777Z,56.36
2022-11-03T02:47:11.293Z,56.41
2022-11-03T02:49:51.539Z,56.39
2022-11-03T02:52:53.811Z,56.42
2022-11-03T03:02:46.127Z,56.39
2022-11-03T03:05:34.888Z,56.57
2022-11-03T03:08:40.851Z,56.66
2022-11-03T03:11:39.639Z,56.45
2022-11-03T03:14:42.463Z,56.39
2022-11-03T03:17:22.089Z,56.54
2022-11-03T03:20:14.195Z,56.58
2022-11-03T03:26:49.784Z,56.77
2022-11-03T03:29:54.564Z,57.00
2022-11-03T03:33:19.124Z,57.14
2022-11-03T03:35:55.336Z,57.03
2022-11-03T03:38:42.397Z,56.96
2022-11-03T03:41:41.934Z,56.93
2022-11-03T03:44:39.662Z,57.02
2022-11-03T03:47:16.131Z,57.07
2022-11-03T03:49:54.688Z,57.10
2022-11-03T03:52:30.809Z,57.16
2022-11-03T03:55:15.703Z,57.32
2022-11-03T03:57:49.510Z,57.25
2022-11-03T04:00:26.683Z,57.02
2022-11-03T04:03:07.557Z,57.06
2022-11-03T04:05:40.385Z,57.04
2022-11-03T04:08:16.600Z,57.03
2022-11-03T04:17:41.281Z,57.26
2022-11-03T04:20:33.973Z,57.10
2022-11-03T04:23:08.719Z,57.13
2022-11-03T04:25:49.362Z,57.10
2022-11-03T04:28:22.818Z,57.27
2022-11-03T04:31:04.708Z,57.32
2022-11-03T04:33:43.044Z,57.37
2022-11-03T04:36:20.846Z,57.33
2022-11-03T04:38:56.165Z,57.29
2022-11-03T04:41:35.525Z,57.44
2022-11-03T04:44:37.490Z,57.37
2022-11-03T04:47:14.613Z,57.16
2022-11-03T04:50:20.759Z,57.30
2022-11-03T04:53:06.480Z,57.39
2022-11-03T04:56:28.584Z,57.40
2022-11-03T05:02:16.868Z,57.53
2022-11-03T05:04:49.517Z,57.47
2022-11-03T05:07:30.609Z,57.43
2022-11-03T05:10:04.162Z,57.39
2022-11-03T05:12:38.154Z,57.44
2022-11-03T05:15:28.797Z,57.60
2022-11-03T05:18:03.122Z,57.60
2022-11-03T05:20:39.440Z,57.87
2022-11-03T05:23:13.775Z,58.15
2022-11-03T05:25:51.732Z,58.29
2022-11-03T05:28:28.520Z,58.54
2022-11-03T05:31:00.574Z,58.71
2022-11-03T05:33:35.777Z,58.85
2022-11-03T05:36:16.959Z,58.37
2022-11-03T05:38:49.355Z,58.11
2022-11-03T05:41:25.915Z,58.14
2022-11-03T05:44:03.876Z,58.03
2022-11-03T05:46:37.737Z,57.92
2022-11-03T05:49:13.324Z,57.96
2022-11-03T05:51:47.185Z,57.81
2022-11-03T05:54:24.567Z,57.82
2022-11-03T05:56:58.946Z,57.86
2022-11-03T05:59:32.423Z,57.90
2022-11-03T06:02:04.930Z,57.97
2022-11-03T06:04:40.823Z,58.17
2022-11-03T06:07:22.361Z,58.17
2022-11-03T06:09:55.119Z,58.21
2022-11-03T06:12:30.627Z,58.25
2022-11-03T06:15:06.840Z,58.28
2022-11-03T06:17:40.955Z,58.10
2022-11-03T06:20:20.744Z,58.15
2022-11-03T06:22:53.574Z,58.08
2022-11-03T06:25:31.551Z,57.99
2022-11-03T06:28:08.231Z,58.10
2022-11-03T06:30:44.879Z,58.12
2022-11-03T06:33:21.633Z,58.26
2022-11-03T06:35:56.117Z,58.37
2022-11-03T06:38:31.070Z,58.42
2022-11-03T06:41:05.542Z,58.45
2022-11-03T06:43:43.743Z,58.52
2022-11-03T06:46:20.048Z,58.45
2022-11-03T06:48:52.744Z,58.73
2022-11-03T06:51:27.808Z,59.34
2022-11-03T06:54:01.868Z,59.39
2022-11-03T06:56:38.941Z,59.28
2022-11-03T06:59:14.928Z,59.35
2022-11-03T07:01:50.177Z,59.83
2022-11-03T07:05:10.357Z,59.37
2022-11-03T07:07:44.484Z,59.88
2022-11-03T07:10:27.754Z,59.97
2022-11-03T07:13:48.344Z,59.88
2022-11-03T07:16:47.268Z,59.82
2022-11-03T07:19:27.831Z,59.89
2022-11-03T07:22:31.139Z,59.97
2022-11-03T07:25:12.885Z,59.35
2022-11-03T07:28:17.904Z,59.27
2022-11-03T07:30:53.721Z,59.22
2022-11-03T07:33:33.360Z,59.44
2022-11-03T07:43:42.272Z,59.58
2022-11-03T07:49:42.053Z,59.36
2022-11-03T07:52:41.498Z,59.36
2022-11-03T07:59:07.245Z,59.55
2022-11-03T08:01:42.025Z,59.72
2022-11-03T08:04:20.079Z,59.70
2022-11-03T08:06:52.578Z,59.74
2022-11-03T08:09:24.727Z,59.62
2022-11-03T08:11:56.630Z,59.68
2022-11-03T08:14:28.614Z,59.71
2022-11-03T08:17:00.702Z,59.87
2022-11-03T08:19:34.345Z,59.81
2022-11-03T08:22:10.289Z,59.52
2022-11-03T08:24:46.236Z,59.43
2022-11-03T08:27:21.140Z,59.54
2022-11-03T08:29:54.798Z,59.27
2022-11-03T08:32:28.861Z,59.31
2022-11-03T08:35:03.284Z,59.28
2022-11-03T08:37:35.450Z,59.05
2022-11-03T08:40:31.291Z,58.94
2022-11-03T08:43:55.103Z,58.87
2022-11-03T08:47:03.316Z,58.71
2022-11-03T08:49:35.172Z,58.80
2022-11-03T08:52:08.747Z,58.70
2022-11-03T08:54:42.870Z,58.66
2022-11-03T09:01:06.155Z,58.24
2022-11-03T09:03:48.356Z,57.81
2022-11-03T09:07:16.803Z,57.59
2022-11-03T09:10:22.253Z,57.57
2022-11-03T09:19:43.878Z,56.82
2022-11-03T09:22:23.924Z,56.78
2022-11-03T09:25:02.560Z,56.46
2022-11-03T09:27:35.466Z,56.04
2022-11-03T09:30:15.278Z,55.91
2022-11-03T09:32:49.361Z,55.51
2022-11-03T09:35:22.890Z,55.43
2022-11-03T09:37:55.582Z,55.04
2022-11-03T09:40:29.262Z,54.82
2022-11-03T09:43:01.696Z,54.55
2022-11-03T09:45:34.656Z,54.10
2022-11-03T09:48:09.831Z,53.93
2022-11-03T09:50:46.546Z,53.84
2022-11-03T09:53:19.579Z,53.51
2022-11-03T09:55:51.490Z,53.50
2022-11-03T09:58:24.041Z,53.43
2022-11-03T10:00:56.321Z,53.37
2022-11-03T10:03:30.652Z,53.16
2022-11-03T10:06:05.771Z,53.08
2022-11-03T10:08:40.259Z,52.87
2022-11-03T10:11:12.119Z,52.63
2022-11-03T10:13:49.235Z,52.66
2022-11-03T10:16:24.573Z,52.35
2022-11-03T10:18:57.197Z,51.87
2022-11-03T10:21:34.175Z,51.77
2022-11-03T10:24:11.339Z,51.56
2022-11-03T10:26:53.074Z,51.28
2022-11-03T10:29:27.319Z,51.32
2022-11-03T10:32:01.050Z,51.26
2022-11-03T10:34:41.926Z,50.83
2022-11-03T10:37:21.772Z,50.20
2022-11-03T10:39:56.899Z,49.87
2022-11-03T10:42:35.771Z,49.62
2022-11-03T10:45:20.442Z,49.57
2022-11-03T10:48:03.070Z,49.36
2022-11-03T10:50:36.404Z,49.26
2022-11-03T10:53:11.372Z,49.29
2022-11-03T10:55:46.173Z,48.79
2022-11-03T10:58:18.694Z,48.21
2022-11-03T11:00:53.862Z,48.19
2022-11-03T11:03:27.152Z,47.91
2022-11-03T11:06:00.845Z,47.42
2022-11-03T11:08:32.756Z,47.22
2022-11-03T11:11:10.312Z,46.66
2022-11-03T11:13:46.617Z,46.40
2022-11-03T11:16:51.376Z,46.37
2022-11-03T11:19:25.065Z,45.69
2022-11-03T11:22:15.963Z,44.90
2022-11-03T11:25:07.558Z,45.02
2022-11-03T11:28:03.400Z,45.17
2022-11-03T11:31:24.057Z,44.95
2022-11-03T11:34:30.647Z,44.83
2022-11-03T11:37:37.771Z,44.83
2022-11-03T11:40:27.185Z,44.08
2022-11-03T11:43:30.221Z,43.20
2022-11-03T11:46:42.525Z,43.19
2022-11-03T11:49:30.642Z,42.58
2022-11-03T11:52:05.357Z,42.44
2022-11-03T11:54:37.275Z,42.12
2022-11-03T11:57:20.603Z,40.99
2022-11-03T11:59:54.006Z,41.26
2022-11-03T12:02:31.995Z,41.08
2022-11-03T12:05:05.046Z,40.85
2022-11-03T12:07:43.718Z,40.62
2022-11-03T12:10:18.681Z,40.61
2022-11-03T12:12:52.830Z,40.34
2022-11-03T12:15:54.389Z,40.05
2022-11-03T12:18:50.268Z,39.64
2022-11-03T12:21:52.179Z,39.29
2022-11-03T12:24:39.440Z,38.99
2022-11-03T12:27:43.738Z,38.46
2022-11-03T12:30:19.075Z,38.46
2022-11-03T12:32:53.384Z,37.94
2022-11-03T12:35:26.680Z,37.44
2022-11-03T12:38:00.130Z,37.28
2022-11-03T12:40:32.491Z,37.47
2022-11-03T12:43:04.807Z,37.33
2022-11-03T12:45:37.312Z,37.34
2022-11-03T12:48:12.834Z,37.14
2022-11-03T12:50:47.021Z,36.27
2022-11-03T12:53:19.249Z,35.89
2022-11-03T12:55:58.489Z,35.91
2022-11-03T12:58:31.814Z,35.35
2022-11-03T13:01:05.618Z,34.56
2022-11-03T13:03:38.951Z,34.24
2022-11-03T13:06:16.590Z,34.46
2022-11-03T13:08:53.224Z,34.67
2022-11-03T13:11:45.358Z,35.02
2022-11-03T13:14:17.628Z,34.81
2022-11-03T13:16:49.471Z,34.79
2022-11-03T13:19:28.650Z,34.82
2022-11-03T13:22:02.158Z,34.79
2022-11-03T13:24:36.845Z,34.60
2022-11-03T13:27:13.054Z,34.36
2022-11-03T13:29:45.793Z,33.89
2022-11-03T13:32:21.865Z,33.93
2022-11-03T13:34:56.899Z,34.17
2022-11-03T13:37:30.226Z,34.57
2022-11-03T13:40:03.821Z,34.42
2022-11-03T13:42:36.629Z,34.72
2022-11-03T13:45:11.686Z,35.17
2022-11-03T13:50:41.367Z,35.90
2022-11-03T13:56:12.860Z,36.50
2022-11-03T14:01:43.844Z,36.91
2022-11-03T14:07:14.753Z,37.71
2022-11-03T14:09:48.631Z,37.96
2022-11-03T14:12:39.169Z,38.19
2022-11-03T14:15:13.433Z,38.47
2022-11-03T14:17:48.340Z,38.72
2022-11-03T14:20:23.969Z,38.77
2022-11-03T14:22:56.985Z,38.96
2022-11-03T14:25:32.907Z,39.19
2022-11-03T14:28:04.957Z,39.41
2022-11-03T14:30:37.666Z,39.49
2022-11-03T14:33:12.182Z,39.62
2022-11-03T14:35:44.611Z,39.85
2022-11-03T14:38:16.543Z,39.95
2022-11-03T14:41:06.243Z,40.05
2022-11-03T14:43:40.708Z,40.25
2022-11-03T14:46:14.385Z,40.34
2022-11-03T14:48:46.317Z,40.40
2022-11-03T14:51:20.685Z,40.46
2022-11-03T14:53:55.684Z,40.57
2022-11-03T14:56:27.833Z,40.79
2022-11-03T14:59:02.925Z,40.80
2022-11-03T15:01:37.810Z,41.05
2022-11-03T15:04:12.443Z,41.13
2022-11-03T15:06:45.186Z,41.33
2022-11-03T15:09:18.538Z,41.47
2022-11-03T15:11:51.347Z,41.62
2022-11-03T15:14:27.121Z,41.57
2022-11-03T15:17:01.316Z,41.67
2022-11-03T15:19:34.712Z,41.74
2022-11-03T15:22:08.890Z,41.82
2022-11-03T15:27:36.703Z,41.83
2022-11-03T15:30:14.950Z,41.99
2022-11-03T15:32:47.088Z,42.03
2022-11-03T15:35:21.000Z,42.10
2022-11-03T15:37:54.155Z,42.14
2022-11-03T15:40:26.300Z,42.17
2022-11-03T15:43:02.759Z,42.22
2022-11-03T15:45:36.794Z,42.23
2022-11-03T15:48:10.159Z,42.28
2022-11-03T15:50:43.786Z,42.31
2022-11-03T15:53:18.376Z,42.29
2022-11-03T15:55:52.990Z,42.43
2022-11-03T15:58:28.382Z,42.48
2022-11-03T16:01:01.359Z,42.60
2022-11-03T16:03:35.831Z,42.70
2022-11-03T16:06:08.804Z,42.86
2022-11-03T16:08:42.333Z,43.03
2022-11-03T16:11:15.487Z,43.13
2022-11-03T16:13:48.482Z,43.26
2022-11-03T16:16:22.388Z,43.38
2022-11-03T16:18:58.151Z,43.45
2022-11-03T16:21:30.105Z,43.51
2022-11-03T16:24:02.391Z,43.67
2022-11-03T16:26:35.601Z,43.73
2022-11-03T16:29:08.451Z,43.79
2022-11-03T16:31:40.876Z,43.76
2022-11-03T16:34:13.000Z,43.79
2022-11-03T16:36:46.849Z,43.91
2022-11-03T16:39:20.999Z,43.93
2022-11-03T16:41:55.152Z,44.06
2022-11-03T16:44:28.784Z,44.15
2022-11-03T16:47:00.855Z,44.22
2022-11-03T16:49:42.700Z,44.30
2022-11-03T16:52:16.632Z,44.34
2022-11-03T16:54:52.143Z,44.44
2022-11-03T16:57:24.610Z,44.49
2022-11-03T16:59:58.782Z,44.58
2022-11-03T17:02:31.378Z,44.60
2022-11-03T17:05:04.363Z,44.67
2022-11-03T17:07:38.116Z,44.90
2022-11-03T17:10:12.836Z,44.90
2022-11-03T17:12:44.694Z,44.99
2022-11-03T17:15:18.697Z,45.15
2022-11-03T17:17:51.037Z,45.15
2022-11-03T17:20:22.882Z,45.30
2022-11-03T17:22:57.089Z,45.23
2022-11-03T17:25:29.401Z,45.36
2022-11-03T17:28:09.368Z,45.42
2022-11-03T17:30:42.480Z,45.48
2022-11-03T17:33:20.482Z,45.54
2022-11-03T17:35:53.498Z,45.54
2022-11-03T17:38:26.508Z,45.65
2022-11-03T17:41:02.681Z,45.71
2022-11-03T17:43:40.558Z,45.77
2022-11-03T17:46:12.991Z,45.81
2022-11-03T17:48:47.760Z,45.86
2022-11-03T17:51:19.787Z,45.81
2022-11-03T17:53:54.672Z,45.76
2022-11-03T17:56:32.406Z,45.89
2022-11-03T17:59:07.551Z,45.83
2022-11-03T18:01:41.776Z,45.76
2022-11-03T18:04:16.953Z,45.81
2022-11-03T18:06:49.433Z,45.90
2022-11-03T18:09:23.841Z,45.90
2022-11-03T18:12:15.334Z,45.93
2022-11-03T18:14:47.998Z,45.93
2022-11-03T18:17:23.689Z,46.05
2022-11-03T18:19:57.961Z,46.09
2022-11-03T18:22:32.682Z,46.07
2022-11-03T18:25:10.346Z,46.10
2022-11-03T18:27:45.727Z,46.06
2022-11-03T18:30:18.692Z,46.05
2022-11-03T18:32:54.640Z,46.14
2022-11-03T18:35:31.448Z,46.23
2022-11-03T18:38:10.439Z,46.20
2022-11-03T18:40:45.686Z,46.14
2022-11-03T18:43:21.444Z,46.07
2022-11-03T18:45:54.702Z,45.98
2022-11-03T18:48:27.278Z,45.98
2022-11-03T18:51:00.640Z,46.02
2022-11-03T18:53:34.170Z,46.02
2022-11-03T18:56:11.952Z,46.18
2022-11-03T18:58:45.631Z,46.30
2022-11-03T19:01:26.182Z,46.27
2022-11-03T19:04:04.079Z,46.26
2022-11-03T19:06:37.414Z,46.23
2022-11-03T19:09:09.373Z,46.21
2022-11-03T19:11:41.557Z,46.30
2022-11-03T19:14:20.491Z,46.26
2022-11-03T19:19:52.855Z,46.18
2022-11-03T19:22:27.146Z,46.26
2022-11-03T19:24:59.722Z,46.24
2022-11-03T19:27:35.216Z,46.20
2022-11-03T19:30:12.573Z,46.29
2022-11-03T19:32:47.690Z,46.35
2022-11-03T19:35:31.008Z,46.35
2022-11-03T19:38:06.269Z,46.39
2022-11-03T19:40:39.058Z,46.43
2022-11-03T19:43:14.005Z,46.43
2022-11-03T19:45:51.457Z,46.50
2022-11-03T19:48:28.904Z,46.42
2022-11-03T19:51:02.403Z,46.51
2022-11-03T19:53:37.671Z,46.58
2022-11-03T19:56:13.629Z,46.56
2022-11-03T19:58:46.296Z,46.58
2022-11-03T20:01:21.022Z,46.49
2022-11-03T20:03:55.522Z,46.50
2022-11-03T20:06:28.190Z,46.54
2022-11-03T20:09:00.169Z,46.60
2022-11-03T20:11:37.792Z,46.57
2022-11-03T20:14:13.335Z,46.63
2022-11-03T20:16:47.598Z,46.64
2022-11-03T20:19:20.650Z,46.63
2022-11-03T20:21:53.057Z,46.56
2022-11-03T20:24:25.900Z,46.51
2022-11-03T20:26:57.836Z,46.51
2022-11-03T20:29:34.894Z,46.44
2022-11-03T20:32:10.596Z,46.46
2022-11-03T20:34:46.738Z,46.47
2022-11-03T20:37:21.261Z,46.44
2022-11-03T20:39:53.742Z,46.42
2022-11-03T20:42:29.220Z,46.42
2022-11-03T20:45:06.364Z,46.36
2022-11-03T20:47:39.272Z,46.44
2022-11-03T20:50:14.932Z,46.46
2022-11-03T20:52:48.476Z,46.47
2022-11-03T20:55:23.822Z,46.41
2022-11-03T20:57:58.597Z,46.43
2022-11-03T21:00:34.052Z,46.39
2022-11-03T21:03:44.980Z,46.43
2022-11-03T21:06:11.740Z,46.32
2022-11-03T21:08:46.597Z,46.40
2022-11-03T21:11:27.501Z,46.44
2022-11-03T21:14:01.413Z,46.34
2022-11-03T21:16:55.877Z,46.38
2022-11-03T21:19:59.382Z,46.44
2022-11-03T21:22:53.647Z,46.42
2022-11-03T21:25:27.853Z,46.38
2022-11-03T21:27:59.799Z,46.35
2022-11-03T21:30:34.765Z,46.28
2022-11-03T21:33:08.544Z,46.25
2022-11-03T21:35:44.008Z,46.34
2022-11-03T21:38:18.674Z,46.35
2022-11-03T21:41:13.146Z,46.39
2022-11-03T21:44:04.277Z,46.29
2022-11-03T21:46:38.831Z,46.25
2022-11-03T21:49:31.003Z,46.40
2022-11-03T21:52:03.796Z,46.41
2022-11-03T21:54:38.460Z,46.47
2022-11-03T21:57:14.769Z,46.50
2022-11-03T21:59:47.184Z,46.48
2022-11-03T22:02:22.767Z,46.52
2022-11-03T22:04:56.347Z,46.49
2022-11-03T22:07:29.074Z,46.48
2022-11-03T22:10:03.176Z,46.40
2022-11-03T22:12:36.369Z,46.45
2022-11-03T22:15:31.083Z,46.49
2022-11-03T22:18:08.218Z,46.58
2022-11-03T22:21:01.747Z,46.54
2022-11-03T22:23:55.214Z,46.62
2022-11-03T22:26:50.419Z,46.61
2022-11-03T22:29:49.462Z,46.65
2022-11-03T22:32:23.676Z,46.57
2022-11-03T22:35:13.594Z,46.70
2022-11-03T22:37:47.085Z,46.74
2022-11-03T22:40:38.284Z,46.65
2022-11-03T22:43:31.398Z,46.68
2022-11-03T22:46:04.916Z,46.79
2022-11-03T22:48:37.511Z,46.90
2022-11-03T22:51:13.397Z,46.88
2022-11-03T22:54:04.644Z,46.87
2022-11-03T22:56:36.821Z,46.84
2022-11-03T22:59:09.553Z,46.92
2022-11-03T23:01:44.592Z,46.92
2022-11-03T23:04:18.129Z,46.97
2022-11-03T23:06:50.311Z,47.00
2022-11-03T23:09:23.168Z,46.99
2022-11-03T23:11:55.799Z,47.04
2022-11-03T23:14:50.311Z,47.14
2022-11-03T23:17:45.395Z,47.08
2022-11-03T23:20:37.596Z,47.21
2022-11-03T23:23:33.725Z,47.17
2022-11-03T23:26:06.348Z,47.13
2022-11-03T23:28:39.067Z,47.13
2022-11-03T23:31:13.517Z,47.13
2022-11-03T23:33:46.602Z,47.26
2022-11-03T23:36:21.385Z,47.27
2022-11-03T23:38:55.585Z,47.27
2022-11-03T23:41:28.785Z,47.26
2022-11-03T23:44:02.583Z,47.32
2022-11-03T23:46:53.261Z,47.38
2022-11-03T23:49:25.282Z,47.45
2022-11-03T23:51:57.818Z,47.46
2022-11-03T23:54:32.029Z,47.53
2022-11-03T23:57:23.266Z,47.65
2022-11-03T23:59:55.337Z,47.71
